createdAt,value
2019-01-18T00:00:09.582Z,2.52
2019-01-18T00:01:09.510Z,2.5
2019-01-18T00:02:09.521Z,2.44
2019-01-18T00:03:09.615Z,2.52
2019-01-18T00:04:09.540Z,2.58
2019-01-18T00:05:09.539Z,2.59
2019-01-18T00:06:09.502Z,2.55
2019-01-18T00:07:09.670Z,2.54
2019-01-18T00:08:10.133Z,2.5
2019-01-18T00:09:09.561Z,2.54
2019-01-18T00:10:09.632Z,2.64
2019-01-18T00:11:09.557Z,2.43
2019-01-18T00:12:09.642Z,2.64
2019-01-18T00:13:10.603Z,2.57
2019-01-18T00:14:09.575Z,2.47
2019-01-18T00:15:09.560Z,2.55
2019-01-18T00:16:09.646Z,2.44
2019-01-18T00:17:09.578Z,2.5
2019-01-18T00:18:09.553Z,2.39
2019-01-18T00:19:09.596Z,2.3
2019-01-18T00:20:09.548Z,2.3
2019-01-18T00:21:09.552Z,2.33
2019-01-18T00:22:09.787Z,2.3
2019-01-18T00:23:09.624Z,2.36
2019-01-18T00:24:09.622Z,2.32
2019-01-18T00:25:09.647Z,2.37
2019-01-18T00:26:09.603Z,2.37
2019-01-18T00:27:09.889Z,2.36
2019-01-18T00:28:09.662Z,2.26
2019-01-18T00:29:09.644Z,2.3
2019-01-18T00:30:09.560Z,2.33
2019-01-18T00:31:09.594Z,2.34
2019-01-18T00:32:09.660Z,2.36
2019-01-18T00:33:09.623Z,2.28
2019-01-18T00:34:09.591Z,2.34
2019-01-18T00:35:09.598Z,2.18
2019-01-18T00:36:09.595Z,2.33
2019-01-18T00:37:09.634Z,2.19
2019-01-18T00:38:10.023Z,2.21
2019-01-18T00:39:09.632Z,2.23
2019-01-18T00:40:09.582Z,2.25
2019-01-18T00:41:09.559Z,2.34
2019-01-18T00:42:09.582Z,2.32
2019-01-18T00:43:09.693Z,2.21
2019-01-18T00:44:09.566Z,2.22
2019-01-18T00:45:09.598Z,2.22
2019-01-18T00:46:09.612Z,2.16
2019-01-18T00:47:09.645Z,2.22
2019-01-18T00:48:09.579Z,2.25
2019-01-18T00:49:09.551Z,2.25
2019-01-18T00:50:09.597Z,2.26
2019-01-18T00:51:09.582Z,2.18
2019-01-18T00:52:09.662Z,2.19
2019-01-18T00:53:09.609Z,2.18
2019-01-18T00:54:09.792Z,2.16
2019-01-18T00:55:10.653Z,2.12
2019-01-18T00:56:09.636Z,2.19
2019-01-18T00:57:09.574Z,2.18
2019-01-18T00:58:09.580Z,2.21
2019-01-18T00:59:09.630Z,2.19
2019-01-18T01:00:09.573Z,2.23
2019-01-18T01:01:09.606Z,2.19
2019-01-18T01:02:09.651Z,2.16
2019-01-18T01:03:09.672Z,2.23
2019-01-18T01:04:09.611Z,2.12
2019-01-18T01:05:09.589Z,2.08
2019-01-18T01:06:09.634Z,2.23
2019-01-18T01:07:09.629Z,2.12
2019-01-18T01:08:09.613Z,2.22
2019-01-18T01:09:09.636Z,2.32
2019-01-18T01:10:09.659Z,2.23
2019-01-18T01:11:09.687Z,2.28
2019-01-18T01:12:09.631Z,2.18
2019-01-18T01:13:09.611Z,2.23
2019-01-18T01:14:09.590Z,2.18
2019-01-18T01:15:09.628Z,2.21
2019-01-18T01:16:09.702Z,2.3
2019-01-18T01:17:09.644Z,2.33
2019-01-18T01:18:10.099Z,2.33
2019-01-18T01:19:09.636Z,2.3
2019-01-18T01:20:09.710Z,2.28
2019-01-18T01:21:09.694Z,2.26
2019-01-18T01:22:09.645Z,2.22
2019-01-18T01:23:09.661Z,2.36
2019-01-18T01:24:09.631Z,2.33
2019-01-18T01:25:09.622Z,2.32
2019-01-18T01:26:09.684Z,2.33
2019-01-18T01:27:09.685Z,2.33
2019-01-18T01:28:09.715Z,2.36
2019-01-18T01:29:09.687Z,2.44
2019-01-18T01:30:09.653Z,2.39
2019-01-18T01:31:11.196Z,2.39
2019-01-18T01:32:09.741Z,2.39
2019-01-18T01:33:09.668Z,2.44
2019-01-18T01:34:09.689Z,2.37
2019-01-18T01:35:09.729Z,2.39
2019-01-18T01:36:09.653Z,2.33
2019-01-18T01:37:09.665Z,2.43
2019-01-18T01:38:09.703Z,2.5
2019-01-18T01:39:09.691Z,2.36
2019-01-18T01:40:09.735Z,2.44
2019-01-18T01:41:09.660Z,2.51
2019-01-18T01:42:09.748Z,2.46
2019-01-18T01:43:09.738Z,2.4
2019-01-18T01:44:09.718Z,2.46
2019-01-18T01:45:10.165Z,2.54
2019-01-18T01:46:09.726Z,2.43
2019-01-18T01:47:09.729Z,2.39
2019-01-18T01:48:09.707Z,2.47
2019-01-18T01:49:09.721Z,2.51
2019-01-18T01:50:09.694Z,2.41
2019-01-18T01:51:09.661Z,2.43
2019-01-18T01:52:09.692Z,2.5
2019-01-18T01:53:10.006Z,2.46
2019-01-18T01:54:09.813Z,2.47
2019-01-18T01:55:09.712Z,2.39
2019-01-18T01:56:09.717Z,2.54
2019-01-18T01:57:09.729Z,2.54
2019-01-18T01:58:09.711Z,2.44
2019-01-18T01:59:09.638Z,2.54
2019-01-18T02:00:09.687Z,2.51
2019-01-18T02:01:09.721Z,2.5
2019-01-18T02:02:09.783Z,2.47
2019-01-18T02:03:10.149Z,2.51
2019-01-18T02:04:09.698Z,2.47
2019-01-18T02:05:09.700Z,2.44
2019-01-18T02:06:09.829Z,2.55
2019-01-18T02:07:09.689Z,2.39
2019-01-18T02:08:10.073Z,2.54
2019-01-18T02:09:09.745Z,2.52
2019-01-18T02:10:09.727Z,2.54
2019-01-18T02:11:09.767Z,2.5
2019-01-18T02:12:09.732Z,2.46
2019-01-18T02:13:09.704Z,2.41
2019-01-18T02:14:09.766Z,2.4
2019-01-18T02:15:09.729Z,2.47
2019-01-18T02:16:09.698Z,2.5
2019-01-18T02:17:09.764Z,2.46
2019-01-18T02:18:09.715Z,2.47
2019-01-18T02:19:09.758Z,2.5
2019-01-18T02:20:09.744Z,2.57
2019-01-18T02:21:09.708Z,2.51
2019-01-18T02:22:09.734Z,2.55
2019-01-18T02:23:09.750Z,2.52
2019-01-18T02:24:09.741Z,2.61
2019-01-18T02:25:09.826Z,2.44
2019-01-18T02:26:09.721Z,2.54
2019-01-18T02:27:09.831Z,2.47
2019-01-18T02:28:09.769Z,2.43
2019-01-18T02:29:09.810Z,2.5
2019-01-18T02:30:09.712Z,2.47
2019-01-18T02:31:09.751Z,2.44
2019-01-18T02:32:09.723Z,2.47
2019-01-18T02:33:09.762Z,2.39
2019-01-18T02:34:09.771Z,2.46
2019-01-18T02:35:09.825Z,2.44
2019-01-18T02:36:10.063Z,2.4
2019-01-18T02:37:09.757Z,2.47
2019-01-18T02:38:09.765Z,2.44
2019-01-18T02:39:09.770Z,2.43
2019-01-18T02:40:09.785Z,2.47
2019-01-18T02:41:09.828Z,2.59
2019-01-18T02:42:10.502Z,2.4
2019-01-18T02:43:09.832Z,2.55
2019-01-18T02:44:09.782Z,2.5
2019-01-18T02:45:09.807Z,2.46
2019-01-18T02:46:09.787Z,2.52
2019-01-18T02:47:09.795Z,2.44
2019-01-18T02:48:09.769Z,2.61
2019-01-18T02:49:09.841Z,2.46
2019-01-18T02:50:09.767Z,2.32
2019-01-18T02:51:09.830Z,2.4
2019-01-18T02:52:09.782Z,2.46
2019-01-18T02:53:09.830Z,2.46
2019-01-18T02:54:09.780Z,2.4
2019-01-18T02:55:09.844Z,2.37
2019-01-18T02:56:09.776Z,2.54
2019-01-18T02:57:09.754Z,2.44
2019-01-18T02:58:09.801Z,2.43
2019-01-18T02:59:09.840Z,2.37
2019-01-18T03:00:10.879Z,2.46
2019-01-18T03:01:09.800Z,2.4
2019-01-18T03:02:09.818Z,2.54
2019-01-18T03:03:10.113Z,2.59
2019-01-18T03:04:09.781Z,2.47
2019-01-18T03:05:09.836Z,2.55
2019-01-18T03:06:09.802Z,2.44
2019-01-18T03:07:09.822Z,2.39
2019-01-18T03:08:09.891Z,2.43
2019-01-18T03:09:09.898Z,2.44
2019-01-18T03:10:09.840Z,2.4
2019-01-18T03:11:09.918Z,2.36
2019-01-18T03:12:10.265Z,2.52
2019-01-18T03:13:10.412Z,2.41
2019-01-18T03:14:09.846Z,2.41
2019-01-18T03:15:09.837Z,2.4
2019-01-18T03:16:09.812Z,2.36
2019-01-18T03:17:09.857Z,2.32
2019-01-18T03:18:09.853Z,2.41
2019-01-18T03:19:09.817Z,2.33
2019-01-18T03:20:09.906Z,2.47
2019-01-18T03:21:09.912Z,2.32
2019-01-18T03:22:09.880Z,2.33
2019-01-18T03:23:09.860Z,2.46
2019-01-18T03:24:09.821Z,2.33
2019-01-18T03:25:09.871Z,2.34
2019-01-18T03:26:09.844Z,2.39
2019-01-18T03:27:09.850Z,2.36
2019-01-18T03:28:09.792Z,2.34
2019-01-18T03:29:09.863Z,2.34
2019-01-18T03:30:21.796Z,2.4
2019-01-18T03:31:09.879Z,2.34
2019-01-18T03:32:09.846Z,2.33
2019-01-18T03:33:09.900Z,2.43
2019-01-18T03:34:09.859Z,2.34
2019-01-18T03:35:09.862Z,2.34
2019-01-18T03:36:09.854Z,2.34
2019-01-18T03:37:09.875Z,2.36
2019-01-18T03:38:09.912Z,2.39
2019-01-18T03:39:09.871Z,2.33
2019-01-18T03:40:09.854Z,2.39
2019-01-18T03:41:09.844Z,2.34
2019-01-18T03:42:10.259Z,2.36
2019-01-18T03:43:09.915Z,2.39
2019-01-18T03:44:09.921Z,2.41
2019-01-18T03:45:10.459Z,2.34
2019-01-18T03:46:09.954Z,2.43
2019-01-18T03:47:09.944Z,2.36
2019-01-18T03:48:09.861Z,2.34
2019-01-18T03:49:09.873Z,2.43
2019-01-18T03:50:09.860Z,2.3
2019-01-18T03:51:09.841Z,2.34
2019-01-18T03:52:09.875Z,2.34
2019-01-18T03:53:09.850Z,2.33
2019-01-18T03:54:09.895Z,2.33
2019-01-18T03:55:09.863Z,2.3
2019-01-18T03:56:09.875Z,2.36
2019-01-18T03:57:09.884Z,2.26
2019-01-18T03:58:09.912Z,2.32
2019-01-18T03:59:09.879Z,2.26
2019-01-18T04:00:09.906Z,2.26
2019-01-18T04:01:09.873Z,2.33
2019-01-18T04:02:09.881Z,2.28
2019-01-18T04:03:09.916Z,2.3
2019-01-18T04:04:09.891Z,2.15
2019-01-18T04:05:09.886Z,2.21
2019-01-18T04:06:09.895Z,2.22
2019-01-18T04:07:09.902Z,2.22
2019-01-18T04:08:10.268Z,2.26
2019-01-18T04:09:09.882Z,2.28
2019-01-18T04:10:09.869Z,2.26
2019-01-18T04:11:09.917Z,2.32
2019-01-18T04:12:09.886Z,2.23
2019-01-18T04:13:09.888Z,2.22
2019-01-18T04:14:09.866Z,2.25
2019-01-18T04:15:09.954Z,2.21
2019-01-18T04:16:09.884Z,2.23
2019-01-18T04:17:09.998Z,2.23
2019-01-18T04:18:09.948Z,2.25
2019-01-18T04:19:09.929Z,2.3
2019-01-18T04:20:09.932Z,2.36
2019-01-18T04:21:09.946Z,2.33
2019-01-18T04:22:09.942Z,2.34
2019-01-18T04:23:09.889Z,2.3
2019-01-18T04:24:09.884Z,2.18
2019-01-18T04:25:09.932Z,2.22
2019-01-18T04:26:09.933Z,2.33
2019-01-18T04:27:09.891Z,2.25
2019-01-18T04:28:09.947Z,2.25
2019-01-18T04:29:09.955Z,2.21
2019-01-18T04:30:09.962Z,2.18
2019-01-18T04:31:10.076Z,2.26
2019-01-18T04:32:09.942Z,2.21
2019-01-18T04:33:10.052Z,2.18
2019-01-18T04:34:10.254Z,2.18
2019-01-18T04:35:09.983Z,2.25
2019-01-18T04:36:09.935Z,2.25
2019-01-18T04:37:10.008Z,2.22
2019-01-18T04:38:10.018Z,2.21
2019-01-18T04:39:09.994Z,2.03
2019-01-18T04:40:09.925Z,2.15
2019-01-18T04:41:09.970Z,2.15
2019-01-18T04:42:09.937Z,2.18
2019-01-18T04:43:10.027Z,2.18
2019-01-18T04:44:24.435Z,2.08
2019-01-18T04:45:09.994Z,2.12
2019-01-18T04:46:09.952Z,2.23
2019-01-18T04:47:09.919Z,2.16
2019-01-18T04:48:09.980Z,2.21
2019-01-18T04:49:10.096Z,2.21
2019-01-18T04:50:22.342Z,2.12
2019-01-18T04:51:13.631Z,2.19
2019-01-18T04:52:10.949Z,2.21
2019-01-18T04:53:11.377Z,2.14
2019-01-18T04:54:10.007Z,2.16
2019-01-18T04:55:10.088Z,2.19
2019-01-18T04:56:10.032Z,2.33
2019-01-18T04:57:10.035Z,2.22
2019-01-18T04:58:10.150Z,2.22
2019-01-18T04:59:10.055Z,2.19
2019-01-18T05:00:10.125Z,2.22
2019-01-18T05:01:10.064Z,2.15
2019-01-18T05:02:10.207Z,2.19
2019-01-18T05:03:10.064Z,2.16
2019-01-18T05:04:09.985Z,2.25
2019-01-18T05:05:10.092Z,2.18
2019-01-18T05:06:09.995Z,2.25
2019-01-18T05:07:10.001Z,2.15
2019-01-18T05:08:10.013Z,2.07
2019-01-18T05:09:10.003Z,2.14
2019-01-18T05:10:10.027Z,2.16
2019-01-18T05:11:09.994Z,2.18
2019-01-18T05:12:10.039Z,2.16
2019-01-18T05:13:10.205Z,2.16
2019-01-18T05:14:10.355Z,2.1
2019-01-18T05:15:10.011Z,2.16
2019-01-18T05:16:10.025Z,2.14
2019-01-18T05:17:10.066Z,2.1
2019-01-18T05:18:09.988Z,2.18
2019-01-18T05:19:10.017Z,2.08
2019-01-18T05:20:10.046Z,2.15
2019-01-18T05:21:10.057Z,2.23
2019-01-18T05:22:10.018Z,2.3
2019-01-18T05:23:10.037Z,2.21
2019-01-18T05:24:10.049Z,2.22
2019-01-18T05:25:09.982Z,2.25
2019-01-18T05:26:10.065Z,2.3
2019-01-18T05:27:10.032Z,2.21
2019-01-18T05:28:10.119Z,2.22
2019-01-18T05:29:10.013Z,2.19
2019-01-18T05:30:10.024Z,2.34
2019-01-18T05:31:10.023Z,2.32
2019-01-18T05:32:09.992Z,2.36
2019-01-18T05:33:10.033Z,2.3
2019-01-18T05:34:10.057Z,2.32
2019-01-18T05:35:10.043Z,2.26
2019-01-18T05:36:10.036Z,2.36
2019-01-18T05:37:10.002Z,2.18
2019-01-18T05:38:10.094Z,2.19
2019-01-18T05:39:10.039Z,2.19
2019-01-18T05:40:10.034Z,2.21
2019-01-18T05:41:09.989Z,2.21
2019-01-18T05:42:10.119Z,2.25
2019-01-18T05:43:10.097Z,2.15
2019-01-18T05:44:10.044Z,2.16
2019-01-18T05:45:10.036Z,2.15
2019-01-18T05:46:10.072Z,2.18
2019-01-18T05:47:10.102Z,2.21
2019-01-18T05:48:10.128Z,2.15
2019-01-18T05:49:10.412Z,2.08
2019-01-18T05:50:10.094Z,2.14
2019-01-18T05:51:10.035Z,2.1
2019-01-18T05:52:10.043Z,2.16
2019-01-18T05:53:10.046Z,2.18
2019-01-18T05:54:10.067Z,2.18
2019-01-18T05:55:10.048Z,2.18
2019-01-18T05:56:10.074Z,2.19
2019-01-18T05:57:10.000Z,2.14
2019-01-18T05:58:10.081Z,2.18
2019-01-18T05:59:10.072Z,2.08
2019-01-18T06:00:10.094Z,2.15
2019-01-18T06:01:10.070Z,2.16
2019-01-18T06:02:16.243Z,2.23
2019-01-18T06:03:16.169Z,2.16
2019-01-18T06:04:10.252Z,2.12
2019-01-18T06:05:10.044Z,2.12
2019-01-18T06:06:10.128Z,2.15
2019-01-18T06:07:10.100Z,2.19
2019-01-18T06:08:10.072Z,2.15
2019-01-18T06:09:11.812Z,2.08
2019-01-18T06:10:11.712Z,1.98
2019-01-18T06:11:31.257Z,2.05
2019-01-18T06:12:10.101Z,2.04
2019-01-18T06:13:10.074Z,2.03
2019-01-18T06:14:10.064Z,2.1
2019-01-18T06:15:10.080Z,2.07
2019-01-18T06:16:10.114Z,2.05
2019-01-18T06:17:10.114Z,2.14
2019-01-18T06:18:10.081Z,2.08
2019-01-18T06:19:10.068Z,2.14
2019-01-18T06:20:10.055Z,2.08
2019-01-18T06:21:10.059Z,2.07
2019-01-18T06:22:10.149Z,2.14
2019-01-18T06:23:10.879Z,2.05
2019-01-18T06:24:10.236Z,2.07
2019-01-18T06:25:10.140Z,2.01
2019-01-18T06:26:13.137Z,1.97
2019-01-18T06:27:10.116Z,1.97
2019-01-18T06:28:10.269Z,1.95
2019-01-18T06:29:10.097Z,2.07
2019-01-18T06:30:10.160Z,2
2019-01-18T06:31:10.105Z,2.05
2019-01-18T06:32:10.216Z,2.01
2019-01-18T06:33:10.396Z,1.86
2019-01-18T06:34:10.133Z,2.01
2019-01-18T06:35:10.123Z,2.08
2019-01-18T06:36:10.205Z,2.08
2019-01-18T06:37:10.220Z,2.03
2019-01-18T06:38:10.112Z,1.95
2019-01-18T06:39:10.130Z,1.95
2019-01-18T06:40:10.114Z,1.84
2019-01-18T06:41:10.111Z,1.84
2019-01-18T06:42:10.180Z,1.88
2019-01-18T06:43:10.241Z,1.89
2019-01-18T06:44:10.205Z,1.89
2019-01-18T06:45:10.422Z,1.88
2019-01-18T06:46:10.128Z,1.86
2019-01-18T06:47:10.187Z,2
2019-01-18T06:48:10.222Z,1.84
2019-01-18T06:49:11.085Z,1.88
2019-01-18T06:50:10.233Z,1.88
2019-01-18T06:51:10.210Z,1.92
2019-01-18T06:52:10.221Z,1.84
2019-01-18T06:53:10.180Z,1.98
2019-01-18T06:54:10.159Z,1.95
2019-01-18T06:55:10.163Z,1.85
2019-01-18T06:56:10.214Z,1.75
2019-01-18T06:57:10.157Z,1.71
2019-01-18T06:58:10.302Z,1.81
2019-01-18T06:59:10.192Z,1.76
2019-01-18T07:00:10.228Z,1.81
2019-01-18T07:01:14.456Z,1.84
2019-01-18T07:02:10.215Z,1.84
2019-01-18T07:03:10.192Z,1.88
2019-01-18T07:04:10.203Z,1.88
2019-01-18T07:05:10.242Z,1.66
2019-01-18T07:06:10.178Z,1.81
2019-01-18T07:07:10.314Z,1.81
2019-01-18T07:08:10.192Z,1.75
2019-01-18T07:09:10.183Z,1.78
2019-01-18T07:10:10.166Z,1.68
2019-01-18T07:11:10.209Z,1.81
2019-01-18T07:12:10.316Z,1.85
2019-01-18T07:13:10.220Z,1.92
2019-01-18T07:14:10.216Z,1.75
2019-01-18T07:15:10.234Z,1.89
2019-01-18T07:16:10.172Z,1.85
2019-01-18T07:17:10.285Z,1.78
2019-01-18T07:18:10.186Z,1.82
2019-01-18T07:19:10.230Z,1.84
2019-01-18T07:20:10.242Z,1.85
2019-01-18T07:21:10.237Z,1.82
2019-01-18T07:22:10.214Z,1.92
2019-01-18T07:23:10.204Z,1.86
2019-01-18T07:24:10.161Z,1.84
2019-01-18T07:25:11.565Z,1.71
2019-01-18T07:26:10.268Z,1.76
2019-01-18T07:27:10.210Z,1.71
2019-01-18T07:28:10.220Z,1.79
2019-01-18T07:29:10.254Z,1.7
2019-01-18T07:30:10.231Z,1.74
2019-01-18T07:31:15.040Z,1.76
